sensor_id;sensor_type;location;lat;lon;timestamp;P1;durP1;ratioP1;P2;durP2;ratioP2
13485;SDS011;6815;59.336;17.998;2023-04-01T00:00:54;2.10;;;1.40;;
13485;SDS011;6815;59.336;17.998;2023-04-01T00:03:21;4.70;;;1.50;;
13485;SDS011;6815;59.336;17.998;2023-04-01T00:05:49;1.97;;;1.40;;
13485;SDS011;6815;59.336;17.998;2023-04-01T00:08:15;1.93;;;1.63;;
13485;SDS011;6815;59.336;17.998;2023-04-01T00:10:42;1.77;;;1.50;;
13485;SDS011;6815;59.336;17.998;2023-04-01T00:13:09;2.80;;;1.37;;
13485;SDS011;6815;59.336;17.998;2023-04-01T00:15:34;3.37;;;1.50;;
13485;SDS011;6815;59.336;17.998;2023-04-01T00:18:00;3.33;;;1.67;;
13485;SDS011;6815;59.336;17.998;2023-04-01T00:20:26;2.97;;;1.77;;
13485;SDS011;6815;59.336;17.998;2023-04-01T00:22:52;4.00;;;1.73;;
13485;SDS011;6815;59.336;17.998;2023-04-01T00:25:17;3.40;;;1.70;;
13485;SDS011;6815;59.336;17.998;2023-04-01T00:27:43;3.03;;;1.77;;
13485;SDS011;6815;59.336;17.998;2023-04-01T00:30:09;3.37;;;1.40;;
13485;SDS011;6815;59.336;17.998;2023-04-01T00:32:36;3.23;;;1.90;;
13485;SDS011;6815;59.336;17.998;2023-04-01T00:35:02;4.37;;;1.40;;
13485;SDS011;6815;59.336;17.998;2023-04-01T00:37:28;5.13;;;1.70;;
13485;SDS011;6815;59.336;17.998;2023-04-01T00:39:54;3.07;;;1.60;;
13485;SDS011;6815;59.336;17.998;2023-04-01T00:42:20;2.03;;;1.60;;
13485;SDS011;6815;59.336;17.998;2023-04-01T00:44:53;3.60;;;1.80;;
13485;SDS011;6815;59.336;17.998;2023-04-01T00:47:19;5.13;;;1.70;;
13485;SDS011;6815;59.336;17.998;2023-04-01T00:49:46;3.53;;;1.60;;
13485;SDS011;6815;59.336;17.998;2023-04-01T00:52:16;2.67;;;1.50;;
13485;SDS011;6815;59.336;17.998;2023-04-01T00:54:44;1.60;;;1.30;;
13485;SDS011;6815;59.336;17.998;2023-04-01T00:57:13;2.03;;;1.40;;
13485;SDS011;6815;59.336;17.998;2023-04-01T00:59:52;2.13;;;1.40;;
13485;SDS011;6815;59.336;17.998;2023-04-01T01:02:20;1.67;;;1.50;;
13485;SDS011;6815;59.336;17.998;2023-04-01T01:04:46;2.53;;;1.33;;
13485;SDS011;6815;59.336;17.998;2023-04-01T01:12:44;2.67;;;1.37;;
13485;SDS011;6815;59.336;17.998;2023-04-01T01:34:30;1.90;;;1.40;;
13485;SDS011;6815;59.336;17.998;2023-04-01T01:36:58;2.30;;;1.63;;
13485;SDS011;6815;59.336;17.998;2023-04-01T01:39:30;2.67;;;1.70;;
13485;SDS011;6815;59.336;17.998;2023-04-01T01:42:00;1.60;;;1.30;;
13485;SDS011;6815;59.336;17.998;2023-04-01T01:44:28;3.80;;;1.83;;
13485;SDS011;6815;59.336;17.998;2023-04-01T01:46:57;2.70;;;1.67;;
13485;SDS011;6815;59.336;17.998;2023-04-01T01:49:24;3.13;;;1.27;;
13485;SDS011;6815;59.336;17.998;2023-04-01T01:51:52;2.70;;;1.50;;
13485;SDS011;6815;59.336;17.998;2023-04-01T01:54:18;2.13;;;1.67;;
13485;SDS011;6815;59.336;17.998;2023-04-01T01:56:45;2.50;;;1.47;;
13485;SDS011;6815;59.336;17.998;2023-04-01T01:59:14;1.80;;;1.47;;
13485;SDS011;6815;59.336;17.998;2023-04-01T02:01:42;1.67;;;1.30;;
13485;SDS011;6815;59.336;17.998;2023-04-01T02:04:12;2.87;;;1.80;;
13485;SDS011;6815;59.336;17.998;2023-04-01T02:06:40;2.07;;;1.60;;
13485;SDS011;6815;59.336;17.998;2023-04-01T02:09:12;2.97;;;1.53;;
13485;SDS011;6815;59.336;17.998;2023-04-01T02:11:46;2.33;;;1.30;;
13485;SDS011;6815;59.336;17.998;2023-04-01T02:14:22;3.47;;;1.40;;
13485;SDS011;6815;59.336;17.998;2023-04-01T02:16:54;2.33;;;1.40;;
13485;SDS011;6815;59.336;17.998;2023-04-01T02:19:27;2.37;;;1.60;;
13485;SDS011;6815;59.336;17.998;2023-04-01T02:21:59;1.67;;;1.33;;
13485;SDS011;6815;59.336;17.998;2023-04-01T02:24:28;1.80;;;1.37;;
13485;SDS011;6815;59.336;17.998;2023-04-01T02:26:56;1.30;;;1.20;;
13485;SDS011;6815;59.336;17.998;2023-04-01T02:29:23;1.93;;;1.30;;
13485;SDS011;6815;59.336;17.998;2023-04-01T02:31:52;2.13;;;1.60;;
13485;SDS011;6815;59.336;17.998;2023-04-01T02:34:19;3.17;;;1.30;;
13485;SDS011;6815;59.336;17.998;2023-04-01T02:36:47;2.43;;;1.50;;
13485;SDS011;6815;59.336;17.998;2023-04-01T02:39:14;4.07;;;1.57;;
13485;SDS011;6815;59.336;17.998;2023-04-01T02:41:41;2.43;;;1.60;;
13485;SDS011;6815;59.336;17.998;2023-04-01T02:44:09;1.90;;;1.50;;
13485;SDS011;6815;59.336;17.998;2023-04-01T02:46:35;3.70;;;1.53;;
13485;SDS011;6815;59.336;17.998;2023-04-01T02:49:02;1.63;;;1.47;;
13485;SDS011;6815;59.336;17.998;2023-04-01T02:51:28;3.20;;;1.43;;
13485;SDS011;6815;59.336;17.998;2023-04-01T02:53:53;2.67;;;1.60;;
13485;SDS011;6815;59.336;17.998;2023-04-01T02:56:19;3.80;;;1.63;;
13485;SDS011;6815;59.336;17.998;2023-04-01T02:58:45;2.53;;;1.70;;
13485;SDS011;6815;59.336;17.998;2023-04-01T03:01:11;3.70;;;1.70;;
13485;SDS011;6815;59.336;17.998;2023-04-01T03:03:37;1.80;;;1.40;;
13485;SDS011;6815;59.336;17.998;2023-04-01T03:06:06;1.87;;;1.30;;
13485;SDS011;6815;59.336;17.998;2023-04-01T03:08:32;2.10;;;1.40;;
13485;SDS011;6815;59.336;17.998;2023-04-01T03:10:58;1.97;;;1.40;;
13485;SDS011;6815;59.336;17.998;2023-04-01T03:13:24;2.73;;;1.50;;
13485;SDS011;6815;59.336;17.998;2023-04-01T03:15:50;2.73;;;1.83;;
13485;SDS011;6815;59.336;17.998;2023-04-01T03:18:16;3.27;;;1.77;;
13485;SDS011;6815;59.336;17.998;2023-04-01T03:20:41;1.83;;;1.60;;
13485;SDS011;6815;59.336;17.998;2023-04-01T03:23:07;4.00;;;1.50;;
13485;SDS011;6815;59.336;17.998;2023-04-01T03:25:33;2.70;;;1.43;;
13485;SDS011;6815;59.336;17.998;2023-04-01T03:27:58;1.70;;;1.30;;
13485;SDS011;6815;59.336;17.998;2023-04-01T03:30:26;1.73;;;1.43;;
13485;SDS011;6815;59.336;17.998;2023-04-01T03:32:52;1.67;;;1.33;;
13485;SDS011;6815;59.336;17.998;2023-04-01T03:35:17;2.40;;;1.43;;
13485;SDS011;6815;59.336;17.998;2023-04-01T03:37:43;2.57;;;1.60;;
13485;SDS011;6815;59.336;17.998;2023-04-01T03:40:09;2.53;;;1.23;;
13485;SDS011;6815;59.336;17.998;2023-04-01T03:42:35;2.47;;;1.33;;
13485;SDS011;6815;59.336;17.998;2023-04-01T03:45:01;3.10;;;1.47;;
13485;SDS011;6815;59.336;17.998;2023-04-01T03:47:27;3.70;;;1.30;;
13485;SDS011;6815;59.336;17.998;2023-04-01T03:49:53;1.73;;;1.13;;
13485;SDS011;6815;59.336;17.998;2023-04-01T03:52:19;2.00;;;1.20;;
13485;SDS011;6815;59.336;17.998;2023-04-01T03:54:45;1.43;;;1.20;;
13485;SDS011;6815;59.336;17.998;2023-04-01T03:57:11;2.00;;;1.40;;
13485;SDS011;6815;59.336;17.998;2023-04-01T03:59:36;1.83;;;1.07;;
13485;SDS011;6815;59.336;17.998;2023-04-01T04:02:02;4.73;;;1.40;;
13485;SDS011;6815;59.336;17.998;2023-04-01T04:04:28;1.97;;;1.27;;
13485;SDS011;6815;59.336;17.998;2023-04-01T04:06:55;1.67;;;1.07;;
13485;SDS011;6815;59.336;17.998;2023-04-01T04:09:21;2.37;;;1.50;;
13485;SDS011;6815;59.336;17.998;2023-04-01T04:11:48;1.80;;;1.50;;
13485;SDS011;6815;59.336;17.998;2023-04-01T04:14:14;1.77;;;1.60;;
13485;SDS011;6815;59.336;17.998;2023-04-01T04:16:39;2.33;;;1.40;;
13485;SDS011;6815;59.336;17.998;2023-04-01T04:19:05;2.10;;;1.67;;
13485;SDS011;6815;59.336;17.998;2023-04-01T04:21:30;1.60;;;1.50;;
13485;SDS011;6815;59.336;17.998;2023-04-01T04:23:57;2.50;;;1.23;;
13485;SDS011;6815;59.336;17.998;2023-04-01T04:26:24;2.23;;;1.47;;
13485;SDS011;6815;59.336;17.998;2023-04-01T04:28:50;2.60;;;1.70;;
13485;SDS011;6815;59.336;17.998;2023-04-01T04:31:20;2.00;;;1.30;;
13485;SDS011;6815;59.336;17.998;2023-04-01T04:33:47;1.50;;;1.40;;
13485;SDS011;6815;59.336;17.998;2023-04-01T04:36:13;2.50;;;1.47;;
13485;SDS011;6815;59.336;17.998;2023-04-01T04:38:39;2.40;;;1.60;;
13485;SDS011;6815;59.336;17.998;2023-04-01T04:41:08;4.30;;;1.57;;
13485;SDS011;6815;59.336;17.998;2023-04-01T04:43:38;2.33;;;1.50;;
13485;SDS011;6815;59.336;17.998;2023-04-01T04:46:08;4.80;;;1.70;;
13485;SDS011;6815;59.336;17.998;2023-04-01T04:48:35;2.23;;;1.40;;
13485;SDS011;6815;59.336;17.998;2023-04-01T04:51:00;2.17;;;1.50;;
13485;SDS011;6815;59.336;17.998;2023-04-01T04:53:26;2.37;;;1.43;;
13485;SDS011;6815;59.336;17.998;2023-04-01T04:55:51;1.53;;;1.20;;
13485;SDS011;6815;59.336;17.998;2023-04-01T04:58:18;1.90;;;1.20;;
13485;SDS011;6815;59.336;17.998;2023-04-01T05:00:43;1.50;;;1.17;;
13485;SDS011;6815;59.336;17.998;2023-04-01T05:03:10;1.67;;;1.30;;
13485;SDS011;6815;59.336;17.998;2023-04-01T05:05:36;2.50;;;1.20;;
13485;SDS011;6815;59.336;17.998;2023-04-01T05:08:02;1.80;;;1.30;;
13485;SDS011;6815;59.336;17.998;2023-04-01T05:10:28;2.60;;;1.13;;
13485;SDS011;6815;59.336;17.998;2023-04-01T05:12:53;1.60;;;1.47;;
13485;SDS011;6815;59.336;17.998;2023-04-01T05:15:19;4.27;;;1.70;;
13485;SDS011;6815;59.336;17.998;2023-04-01T05:17:45;1.87;;;1.40;;
13485;SDS011;6815;59.336;17.998;2023-04-01T05:20:11;2.17;;;1.37;;
13485;SDS011;6815;59.336;17.998;2023-04-01T05:22:38;3.00;;;1.30;;
13485;SDS011;6815;59.336;17.998;2023-04-01T05:25:04;1.67;;;1.50;;
13485;SDS011;6815;59.336;17.998;2023-04-01T05:27:30;2.97;;;1.63;;
13485;SDS011;6815;59.336;17.998;2023-04-01T05:29:56;1.97;;;1.40;;
13485;SDS011;6815;59.336;17.998;2023-04-01T05:32:22;4.97;;;1.80;;
13485;SDS011;6815;59.336;17.998;2023-04-01T05:34:50;3.40;;;1.30;;
13485;SDS011;6815;59.336;17.998;2023-04-01T05:37:16;3.70;;;1.53;;
13485;SDS011;6815;59.336;17.998;2023-04-01T05:39:42;2.77;;;1.47;;
13485;SDS011;6815;59.336;17.998;2023-04-01T05:42:08;2.80;;;1.13;;
13485;SDS011;6815;59.336;17.998;2023-04-01T05:44:34;1.50;;;1.23;;
13485;SDS011;6815;59.336;17.998;2023-04-01T05:47:01;2.67;;;1.20;;
13485;SDS011;6815;59.336;17.998;2023-04-01T05:49:27;1.60;;;1.30;;
13485;SDS011;6815;59.336;17.998;2023-04-01T05:51:53;3.27;;;1.20;;
13485;SDS011;6815;59.336;17.998;2023-04-01T05:54:19;3.17;;;1.40;;
13485;SDS011;6815;59.336;17.998;2023-04-01T05:56:45;1.90;;;1.27;;
13485;SDS011;6815;59.336;17.998;2023-04-01T05:59:10;2.13;;;1.50;;
13485;SDS011;6815;59.336;17.998;2023-04-01T06:01:36;4.73;;;1.57;;
13485;SDS011;6815;59.336;17.998;2023-04-01T06:04:02;3.53;;;1.53;;
13485;SDS011;6815;59.336;17.998;2023-04-01T06:06:28;4.93;;;1.57;;
13485;SDS011;6815;59.336;17.998;2023-04-01T06:08:57;4.60;;;1.67;;
13485;SDS011;6815;59.336;17.998;2023-04-01T06:20:08;1.80;;;1.10;;
13485;SDS011;6815;59.336;17.998;2023-04-01T06:34:07;1.20;;;1.10;;
13485;SDS011;6815;59.336;17.998;2023-04-01T06:36:46;3.63;;;1.30;;
13485;SDS011;6815;59.336;17.998;2023-04-01T06:44:57;1.57;;;0.90;;
13485;SDS011;6815;59.336;17.998;2023-04-01T06:47:43;2.60;;;1.10;;
13485;SDS011;6815;59.336;17.998;2023-04-01T06:53:06;1.70;;;1.20;;
13485;SDS011;6815;59.336;17.998;2023-04-01T06:55:48;2.40;;;1.10;;
13485;SDS011;6815;59.336;17.998;2023-04-01T06:58:20;1.40;;;1.00;;
13485;SDS011;6815;59.336;17.998;2023-04-01T07:00:53;1.93;;;1.10;;
13485;SDS011;6815;59.336;17.998;2023-04-01T07:03:32;4.73;;;1.13;;
13485;SDS011;6815;59.336;17.998;2023-04-01T07:06:03;2.27;;;1.00;;
13485;SDS011;6815;59.336;17.998;2023-04-01T07:08:31;2.10;;;0.90;;
13485;SDS011;6815;59.336;17.998;2023-04-01T07:11:02;2.33;;;1.10;;
13485;SDS011;6815;59.336;17.998;2023-04-01T07:13:39;2.23;;;0.97;;
13485;SDS011;6815;59.336;17.998;2023-04-01T07:20:02;2.33;;;0.70;;
13485;SDS011;6815;59.336;17.998;2023-04-01T07:24:50;1.90;;;1.20;;
13485;SDS011;6815;59.336;17.998;2023-04-01T07:27:17;8.67;;;1.33;;
13485;SDS011;6815;59.336;17.998;2023-04-01T07:29:43;2.80;;;1.20;;
13485;SDS011;6815;59.336;17.998;2023-04-01T07:34:46;1.73;;;1.10;;
13485;SDS011;6815;59.336;17.998;2023-04-01T07:37:58;1.40;;;1.03;;
13485;SDS011;6815;59.336;17.998;2023-04-01T07:46:50;3.67;;;0.90;;
13485;SDS011;6815;59.336;17.998;2023-04-01T07:55:16;3.97;;;1.10;;
13485;SDS011;6815;59.336;17.998;2023-04-01T07:57:52;2.60;;;0.80;;
13485;SDS011;6815;59.336;17.998;2023-04-01T08:22:27;2.63;;;1.37;;
13485;SDS011;6815;59.336;17.998;2023-04-01T08:25:04;4.43;;;0.97;;
13485;SDS011;6815;59.336;17.998;2023-04-01T08:30:21;2.40;;;1.07;;
13485;SDS011;6815;59.336;17.998;2023-04-01T08:33:29;2.60;;;1.00;;
13485;SDS011;6815;59.336;17.998;2023-04-01T08:36:17;3.50;;;1.17;;
13485;SDS011;6815;59.336;17.998;2023-04-01T08:39:29;2.03;;;0.80;;
13485;SDS011;6815;59.336;17.998;2023-04-01T08:42:10;3.83;;;1.00;;
13485;SDS011;6815;59.336;17.998;2023-04-01T08:56:34;2.87;;;1.10;;
13485;SDS011;6815;59.336;17.998;2023-04-01T09:08:30;2.47;;;1.03;;
13485;SDS011;6815;59.336;17.998;2023-04-01T09:14:53;2.50;;;0.77;;
13485;SDS011;6815;59.336;17.998;2023-04-01T09:17:58;2.67;;;0.80;;
13485;SDS011;6815;59.336;17.998;2023-04-01T09:21:52;3.50;;;1.00;;
13485;SDS011;6815;59.336;17.998;2023-04-01T09:35:22;2.90;;;0.70;;
13485;SDS011;6815;59.336;17.998;2023-04-01T09:49:50;2.33;;;0.90;;
13485;SDS011;6815;59.336;17.998;2023-04-01T09:55:17;3.77;;;0.90;;
13485;SDS011;6815;59.336;17.998;2023-04-01T10:07:08;5.40;;;1.37;;
13485;SDS011;6815;59.336;17.998;2023-04-01T10:13:28;3.37;;;0.90;;
13485;SDS011;6815;59.336;17.998;2023-04-01T10:25:29;2.13;;;0.70;;
13485;SDS011;6815;59.336;17.998;2023-04-01T10:28:18;3.57;;;0.93;;
13485;SDS011;6815;59.336;17.998;2023-04-01T10:37:08;1.90;;;0.67;;
13485;SDS011;6815;59.336;17.998;2023-04-01T10:55:18;1.50;;;0.70;;
13485;SDS011;6815;59.336;17.998;2023-04-01T11:15:56;3.00;;;0.47;;
13485;SDS011;6815;59.336;17.998;2023-04-01T11:27:40;1.03;;;0.50;;
13485;SDS011;6815;59.336;17.998;2023-04-01T11:35:55;3.90;;;0.50;;
13485;SDS011;6815;59.336;17.998;2023-04-01T11:38:45;1.00;;;0.50;;
13485;SDS011;6815;59.336;17.998;2023-04-01T11:56:42;2.07;;;0.50;;
13485;SDS011;6815;59.336;17.998;2023-04-01T12:02:11;1.93;;;0.70;;
13485;SDS011;6815;59.336;17.998;2023-04-01T12:21:02;1.93;;;0.40;;
13485;SDS011;6815;59.336;17.998;2023-04-01T12:26:26;1.63;;;0.57;;
13485;SDS011;6815;59.336;17.998;2023-04-01T12:57:27;2.70;;;0.60;;
13485;SDS011;6815;59.336;17.998;2023-04-01T13:00:05;2.57;;;0.40;;
13485;SDS011;6815;59.336;17.998;2023-04-01T13:08:37;5.73;;;0.60;;
13485;SDS011;6815;59.336;17.998;2023-04-01T13:11:09;1.90;;;0.40;;
13485;SDS011;6815;59.336;17.998;2023-04-01T13:13:43;0.73;;;0.47;;
13485;SDS011;6815;59.336;17.998;2023-04-01T13:16:22;3.13;;;1.07;;
13485;SDS011;6815;59.336;17.998;2023-04-01T13:21:38;0.50;;;0.37;;
13485;SDS011;6815;59.336;17.998;2023-04-01T13:32:43;4.10;;;0.60;;
13485;SDS011;6815;59.336;17.998;2023-04-01T13:43:48;0.80;;;0.40;;
13485;SDS011;6815;59.336;17.998;2023-04-01T14:11:37;0.93;;;0.50;;
13485;SDS011;6815;59.336;17.998;2023-04-01T14:17:00;2.10;;;0.93;;
13485;SDS011;6815;59.336;17.998;2023-04-01T14:22:19;1.90;;;0.67;;
13485;SDS011;6815;59.336;17.998;2023-04-01T14:35:38;4.03;;;0.60;;
13485;SDS011;6815;59.336;17.998;2023-04-01T14:46:50;1.63;;;0.53;;
13485;SDS011;6815;59.336;17.998;2023-04-01T14:49:20;0.57;;;0.50;;
13485;SDS011;6815;59.336;17.998;2023-04-01T14:51:55;3.03;;;0.73;;
13485;SDS011;6815;59.336;17.998;2023-04-01T14:54:36;1.80;;;0.60;;
13485;SDS011;6815;59.336;17.998;2023-04-01T14:57:05;1.17;;;0.57;;
13485;SDS011;6815;59.336;17.998;2023-04-01T14:59:46;2.50;;;0.50;;
13485;SDS011;6815;59.336;17.998;2023-04-01T15:02:18;1.57;;;0.80;;
13485;SDS011;6815;59.336;17.998;2023-04-01T15:24:45;1.40;;;0.70;;
13485;SDS011;6815;59.336;17.998;2023-04-01T15:36:09;1.73;;;1.00;;
13485;SDS011;6815;59.336;17.998;2023-04-01T15:38:53;3.03;;;0.97;;
13485;SDS011;6815;59.336;17.998;2023-04-01T15:41:24;3.43;;;0.50;;
13485;SDS011;6815;59.336;17.998;2023-04-01T15:43:54;4.27;;;0.70;;
13485;SDS011;6815;59.336;17.998;2023-04-01T15:57:28;1.77;;;1.17;;
13485;SDS011;6815;59.336;17.998;2023-04-01T16:00:27;0.83;;;0.57;;
13485;SDS011;6815;59.336;17.998;2023-04-01T16:15:54;4.83;;;0.83;;
13485;SDS011;6815;59.336;17.998;2023-04-01T16:26:55;1.10;;;0.70;;
13485;SDS011;6815;59.336;17.998;2023-04-01T16:29:38;2.13;;;0.90;;
13485;SDS011;6815;59.336;17.998;2023-04-01T16:38:01;5.43;;;1.40;;
13485;SDS011;6815;59.336;17.998;2023-04-01T16:43:42;1.90;;;0.97;;
13485;SDS011;6815;59.336;17.998;2023-04-01T16:46:26;4.47;;;1.13;;
13485;SDS011;6815;59.336;17.998;2023-04-01T16:49:15;2.23;;;0.90;;
13485;SDS011;6815;59.336;17.998;2023-04-01T17:12:13;3.53;;;0.90;;
13485;SDS011;6815;59.336;17.998;2023-04-01T17:20:54;2.83;;;1.00;;
13485;SDS011;6815;59.336;17.998;2023-04-01T17:37:24;3.10;;;1.50;;
13485;SDS011;6815;59.336;17.998;2023-04-01T17:45:51;3.27;;;1.00;;
13485;SDS011;6815;59.336;17.998;2023-04-01T17:48:32;5.80;;;1.50;;
13485;SDS011;6815;59.336;17.998;2023-04-01T17:54:55;4.97;;;1.33;;
13485;SDS011;6815;59.336;17.998;2023-04-01T18:07:18;4.63;;;1.30;;
13485;SDS011;6815;59.336;17.998;2023-04-01T18:26:36;6.77;;;1.80;;
13485;SDS011;6815;59.336;17.998;2023-04-01T18:31:48;4.80;;;1.90;;
13485;SDS011;6815;59.336;17.998;2023-04-01T18:44:16;6.77;;;1.90;;
13485;SDS011;6815;59.336;17.998;2023-04-01T18:50:21;6.07;;;1.93;;
13485;SDS011;6815;59.336;17.998;2023-04-01T18:52:51;6.53;;;2.00;;
13485;SDS011;6815;59.336;17.998;2023-04-01T18:55:31;6.40;;;1.67;;
13485;SDS011;6815;59.336;17.998;2023-04-01T19:06:56;3.53;;;2.30;;
13485;SDS011;6815;59.336;17.998;2023-04-01T19:27:58;6.90;;;1.43;;
13485;SDS011;6815;59.336;17.998;2023-04-01T19:30:37;5.20;;;1.97;;
13485;SDS011;6815;59.336;17.998;2023-04-01T19:36:27;9.13;;;1.30;;
13485;SDS011;6815;59.336;17.998;2023-04-01T19:39:18;4.17;;;1.37;;
13485;SDS011;6815;59.336;17.998;2023-04-01T19:42:29;3.73;;;1.33;;
13485;SDS011;6815;59.336;17.998;2023-04-01T19:45:14;3.73;;;1.17;;
13485;SDS011;6815;59.336;17.998;2023-04-01T20:00:01;4.23;;;1.20;;
13485;SDS011;6815;59.336;17.998;2023-04-01T20:11:44;3.63;;;1.20;;
13485;SDS011;6815;59.336;17.998;2023-04-01T20:17:02;6.50;;;1.60;;
13485;SDS011;6815;59.336;17.998;2023-04-01T20:25:16;5.70;;;1.63;;
13485;SDS011;6815;59.336;17.998;2023-04-01T20:27:56;7.57;;;1.80;;
13485;SDS011;6815;59.336;17.998;2023-04-01T20:53:22;10.00;;;1.90;;
13485;SDS011;6815;59.336;17.998;2023-04-01T21:10:36;7.60;;;1.80;;
13485;SDS011;6815;59.336;17.998;2023-04-01T21:24:38;6.57;;;2.00;;
13485;SDS011;6815;59.336;17.998;2023-04-01T21:27:24;5.93;;;1.57;;
13485;SDS011;6815;59.336;17.998;2023-04-01T21:43:52;5.37;;;1.77;;
13485;SDS011;6815;59.336;17.998;2023-04-01T21:55:36;5.97;;;1.60;;
13485;SDS011;6815;59.336;17.998;2023-04-01T22:06:32;5.60;;;1.50;;
13485;SDS011;6815;59.336;17.998;2023-04-01T22:09:10;5.40;;;1.57;;
13485;SDS011;6815;59.336;17.998;2023-04-01T22:17:17;5.93;;;1.70;;
13485;SDS011;6815;59.336;17.998;2023-04-01T22:20:04;5.40;;;1.93;;
13485;SDS011;6815;59.336;17.998;2023-04-01T22:31:15;15.23;;;1.90;;
13485;SDS011;6815;59.336;17.998;2023-04-01T22:37:00;5.03;;;1.53;;
13485;SDS011;6815;59.336;17.998;2023-04-01T22:53:22;5.43;;;1.40;;
13485;SDS011;6815;59.336;17.998;2023-04-01T22:55:54;6.00;;;1.43;;
13485;SDS011;6815;59.336;17.998;2023-04-01T22:58:33;7.33;;;1.27;;
13485;SDS011;6815;59.336;17.998;2023-04-01T23:01:23;2.93;;;1.30;;
13485;SDS011;6815;59.336;17.998;2023-04-01T23:03:54;7.93;;;1.90;;
13485;SDS011;6815;59.336;17.998;2023-04-01T23:06:27;5.67;;;1.37;;
13485;SDS011;6815;59.336;17.998;2023-04-01T23:09:08;7.20;;;1.67;;
13485;SDS011;6815;59.336;17.998;2023-04-01T23:11:56;5.40;;;1.40;;
13485;SDS011;6815;59.336;17.998;2023-04-01T23:15:08;4.03;;;1.40;;
13485;SDS011;6815;59.336;17.998;2023-04-01T23:20:23;9.97;;;1.97;;
13485;SDS011;6815;59.336;17.998;2023-04-01T23:28:59;4.67;;;1.30;;
13485;SDS011;6815;59.336;17.998;2023-04-01T23:31:26;5.97;;;1.50;;
13485;SDS011;6815;59.336;17.998;2023-04-01T23:34:54;7.33;;;1.57;;
13485;SDS011;6815;59.336;17.998;2023-04-01T23:37:03;6.80;;;1.60;;
13485;SDS011;6815;59.336;17.998;2023-04-01T23:39:37;5.70;;;1.63;;
13485;SDS011;6815;59.336;17.998;2023-04-01T23:42:06;6.47;;;2.07;;
13485;SDS011;6815;59.336;17.998;2023-04-01T23:44:37;4.17;;;1.27;;
13485;SDS011;6815;59.336;17.998;2023-04-01T23:47:04;6.20;;;1.50;;
13485;SDS011;6815;59.336;17.998;2023-04-01T23:49:41;3.27;;;1.37;;
13485;SDS011;6815;59.336;17.998;2023-04-01T23:54:51;5.47;;;1.47;;
13485;SDS011;6815;59.336;17.998;2023-04-01T23:57:31;5.63;;;1.50;;
